Halkirk, Canada
Current Conditions -  °F | °C
As of 4:00 AM on Wednesday 26 Nov 2014 (Local Time) from CYQF Reporting Station
Light Snow Light Snow  
Wind Chill: 12°   Ceiling: 7000
Heat Index: 21°   Visibility: 6mi
Dew Point: 19°   Wind: 8mph
Humidity: 93%   Direction: 190°S
Pressure: 30.12"   Gusts: NA
Location:  52.28°N, 112.15°W
Report Text: CYQF 261100Z 19007KT 6SM -SN OVC070 M06/M07 A3012 RMK AC8 SLP253
Loading
Personal Weather Stations






























Interactive Weather Map New forecast layout! Learn more

10-Day Weather Forecast

Advertisements
Track Severe Weather on mobile